Time;durP1;ratioP1;P1;durP2;ratioP2;P2;SDS_P1;SDS_P2;PMS_P1;PMS_P2;Temp;Humidity;BMP_temperature;BMP_pressure;BME280_temperature;BME280_humidity;BME280_pressure;Samples;Min_cycle;Max_cycle;Signal;HPM_P1;HPM_P2
2023/09/20 00:00:27;;;;;;;;;;;;;;;;;;6163548;23;19908;-95
2023/09/20 00:02:53;;;;;;;;;;;;;;;;;;6162786;23;19904;-93
2023/09/20 00:05:21;;;;;;;;;;;;;;;;;;6162120;23;19904;-94
2023/09/20 00:07:48;;;;;;;;;;;;;;;;;;6161795;23;19915;-94
2023/09/20 00:10:15;;;;;;;;;;;;;;;;;;6162053;23;19912;-94
2023/09/20 00:12:48;;;;;;;;;;;;;;;;;;6128870;23;19968;-93
2023/09/20 00:15:14;;;;;;;;;;;;;;;;;;6113353;23;20557;-93
2023/09/20 00:17:41;;;;;;;;;;;;;;;;;;6107706;23;19990;-94
2023/09/20 00:23:02;;;;;;;;;;;;;;;;;;6107307;23;19937;-93
2023/09/20 00:25:33;;;;;;;;;;;;;;;;;;6080380;23;20128;-93
2023/09/20 00:27:59;;;;;;;;;;;;;;;;;;6076428;23;19912;-93
2023/09/20 00:30:38;;;;;;;;;;;;;;;;;;;;;
2023/09/20 00:33:05;;;;;;;;;;;;;;;;;;6094177;23;20538;-94
2023/09/20 00:35:31;;;;;;;;;;;;;;;;;;6067860;23;19914;-92
2023/09/20 00:37:57;;;;;;;;;;;;;;;;;;6069513;23;19906;-92
2023/09/20 00:40:23;;;;;;;;;;;;;;;;;;6068494;23;19909;-93
2023/09/20 00:42:55;;;;;;;;;;;;;;;;;;6090151;23;20368;-94
2023/09/20 00:45:21;;;;;;;;;;;;;;;;;;6069805;23;19920;-92
2023/09/20 00:47:47;;;;;;;;;;;;;;;;;;6070743;23;19937;-93
2023/09/20 00:50:14;;;;;;;;;;;;;;;;;;6107115;23;19908;-94
2023/09/20 00:52:41;;;;;;;;;;;;;;;;;;6163560;23;20307;-92
2023/09/20 00:55:08;;;;;;;;;;;;;;;;;;6135724;23;19912;-94
2023/09/20 00:57:34;;;;;;;;;;;;;;;;;;6130986;23;19946;-89
2023/09/20 01:00:00;;;;;;;;;;;;;;;;;;6125578;23;19905;-89
2023/09/20 01:02:27;;;;;;;;;;;;;;;;;;6128684;23;19913;-89
2023/09/20 01:04:53;;;;;;;;;;;;;;;;;;6133960;23;19905;-89
2023/09/20 01:07:19;;;;;;;;;;;;;;;;;;6126921;23;19908;-89
2023/09/20 01:09:45;;;;;;;;;;;;;;;;;;6126744;23;19905;-89
2023/09/20 01:12:13;;;;;;;;;;;;;;;;;;6127182;23;19909;-90
2023/09/20 01:14:39;;;;;;;;;;;;;;;;;;6125736;23;19932;-89
2023/09/20 01:17:05;;;;;;;;;;;;;;;;;;6147348;23;20722;-89
2023/09/20 01:19:33;;;;;;;;;;;;;;;;;;6182292;23;19908;-89
2023/09/20 01:21:58;;;;;;;;;;;;;;;;;;6155679;23;19991;-89
2023/09/20 01:24:24;;;;;;;;;;;;;;;;;;6155154;23;20326;-89
2023/09/20 01:26:50;;;;;;;;;;;;;;;;;;6181356;23;19928;-90
2023/09/20 01:29:16;;;;;;;;;;;;;;;;;;6154597;23;19908;-89
2023/09/20 01:31:50;;;;;;;;;;;;;;;;;;6154721;23;19904;-89
2023/09/20 01:34:16;;;;;;;;;;;;;;;;;;6154021;23;20271;-90
2023/09/20 01:36:42;;;;;;;;;;;;;;;;;;6154704;23;20344;-89
2023/09/20 01:39:08;;;;;;;;;;;;;;;;;;6154754;23;20352;-90
2023/09/20 01:41:34;;;;;;;;;;;;;;;;;;6155064;23;19912;-89
2023/09/20 01:44:00;;;;;;;;;;;;;;;;;;6155327;23;20338;-89
2023/09/20 01:46:26;;;;;;;;;;;;;;;;;;6153749;23;19904;-87
2023/09/20 01:48:53;;;;;;;;;;;;;;;;;;6156037;23;19915;-88
2023/09/20 01:51:19;;;;;;;;;;;;;;;;;;6154428;23;19936;-89
2023/09/20 01:53:45;;;;;;;;;;;;;;;;;;6155045;23;19955;-88
2023/09/20 01:56:11;;;;;;;;;;;;;;;;;;6154973;23;19936;-88
2023/09/20 01:58:38;;;;;;;;;;;;;;;;;;6155328;23;19958;-88
2023/09/20 02:01:05;;;;;;;;;;;;;;;;;;6153811;23;19912;-89
2023/09/20 02:03:32;;;;;;;;;;;;;;;;;;6180973;23;19962;-88
2023/09/20 02:05:58;;;;;;;;;;;;;;;;;;6153680;23;20318;-89
2023/09/20 02:08:25;;;;;;;;;;;;;;;;;;6154542;23;20042;-92
2023/09/20 02:10:51;;;;;;;;;;;;;;;;;;6155292;23;20004;-92
2023/09/20 02:13:18;;;;;;;;;;;;;;;;;;6153440;23;19908;-93
2023/09/20 02:15:45;;;;;;;;;;;;;;;;;;6156332;23;20386;-94
2023/09/20 02:18:11;;;;;;;;;;;;;;;;;;6157597;23;19975;-88
2023/09/20 02:20:37;;;;;;;;;;;;;;;;;;6153426;23;20319;-88
2023/09/20 02:23:03;;;;;;;;;;;;;;;;;;6178925;23;19908;-88
2023/09/20 02:25:32;;;;;;;;;;;;;;;;;;6179808;23;19908;-88
2023/09/20 02:27:58;;;;;;;;;;;;;;;;;;6153647;23;19953;-87
2023/09/20 02:30:36;;;;;;;;;;;;;;;;;;6153793;23;19991;-88
2023/09/20 02:33:05;;;;;;;;;;;;;;;;;;6152883;23;19919;-87
2023/09/20 02:35:31;;;;;;;;;;;;;;;;;;6153267;23;19912;-88
2023/09/20 02:37:58;;;;;;;;;;;;;;;;;;6153023;23;20445;-87
2023/09/20 02:40:24;;;;;;;;;;;;;;;;;;6152316;23;19914;-87
2023/09/20 02:43:08;;;;;;;;;;;;;;;;;;6153095;23;20559;-88
2023/09/20 02:45:36;;;;;;;;;;;;;;;;;;6153497;23;19908;-88
2023/09/20 02:48:06;;;;;;;;;;;;;;;;;;6152302;23;19924;-87
2023/09/20 02:50:32;;;;;;;;;;;;;;;;;;6151632;23;19905;-88
2023/09/20 02:52:58;;;;;;;;;;;;;;;;;;6152075;23;19909;-87
2023/09/20 02:55:24;;;;;;;;;;;;;;;;;;6152632;23;19951;-87
2023/09/20 02:57:54;;;;;;;;;;;;;;;;;;6153727;23;20340;-87
2023/09/20 03:00:46;;;;;;;;;;;;;;;;;;6153989;23;19912;-88
2023/09/20 03:03:15;;;;;;;;;;;;;;;;;;6153675;23;19914;-88
2023/09/20 03:05:48;;;;;;;;;;;;;;;;;;6153815;23;19989;-88
2023/09/20 03:08:14;;;;;;;;;;;;;;;;;;6154493;23;19908;-90
2023/09/20 03:10:41;;;;;;;;;;;;;;;;;;6155077;23;19904;-88
2023/09/20 03:13:07;;;;;;;;;;;;;;;;;;6153574;23;20040;-88
2023/09/20 03:15:33;;;;;;;;;;;;;;;;;;6154172;23;19939;-88
2023/09/20 03:18:00;;;;;;;;;;;;;;;;;;6157038;23;19944;-90
2023/09/20 03:20:26;;;;;;;;;;;;;;;;;;6152664;23;19916;-89
2023/09/20 03:22:53;;;;;;;;;;;;;;;;;;6155673;23;19904;-89
2023/09/20 03:25:19;;;;;;;;;;;;;;;;;;6154678;23;19915;-89
2023/09/20 03:27:45;;;;;;;;;;;;;;;;;;6154300;23;19962;-89
2023/09/20 03:30:13;;;;;;;;;;;;;;;;;;6153918;23;19908;-89
2023/09/20 03:32:40;;;;;;;;;;;;;;;;;;6154374;23;19935;-89
2023/09/20 03:35:06;;;;;;;;;;;;;;;;;;6154257;23;19908;-89
2023/09/20 03:37:37;;;;;;;;;;;;;;;;;;6154430;23;19909;-88
2023/09/20 03:40:04;;;;;;;;;;;;;;;;;;6153764;23;19905;-89
2023/09/20 03:42:29;;;;;;;;;;;;;;;;;;6154425;23;19928;-88
2023/09/20 03:44:55;;;;;;;;;;;;;;;;;;6154306;23;20639;-89
2023/09/20 03:47:21;;;;;;;;;;;;;;;;;;6154055;23;19908;-89
2023/09/20 03:49:47;;;;;;;;;;;;;;;;;;6180105;23;19904;-89
2023/09/20 03:52:14;;;;;;;;;;;;;;;;;;6154323;23;20401;-88
2023/09/20 03:54:40;;;;;;;;;;;;;;;;;;6153337;23;19916;-89
2023/09/20 03:57:07;;;;;;;;;;;;;;;;;;6154349;23;19916;-89
2023/09/20 03:59:33;;;;;;;;;;;;;;;;;;6152188;23;19923;-89
2023/09/20 04:01:59;;;;;;;;;;;;;;;;;;6153173;23;20242;-88
2023/09/20 04:04:27;;;;;;;;;;;;;;;;;;6152514;23;20539;-89
2023/09/20 04:06:53;;;;;;;;;;;;;;;;;;6155144;23;19904;-89
2023/09/20 04:09:20;;;;;;;;;;;;;;;;;;6153465;23;19915;-89
2023/09/20 04:11:47;;;;;;;;;;;;;;;;;;6154064;23;19911;-89
2023/09/20 04:14:13;;;;;;;;;;;;;;;;;;6151803;23;19915;-89
2023/09/20 04:16:40;;;;;;;;;;;;;;;;;;6153878;23;20339;-89
2023/09/20 04:19:05;;;;;;;;;;;;;;;;;;6155810;23;19939;-89
2023/09/20 04:21:32;;;;;;;;;;;;;;;;;;6152164;23;19920;-89
2023/09/20 04:23:59;;;;;;;;;;;;;;;;;;6153023;23;19996;-89
2023/09/20 04:26:25;;;;;;;;;;;;;;;;;;6154105;23;19958;-89
2023/09/20 04:28:51;;;;;;;;;;;;;;;;;;6154634;23;19908;-89
2023/09/20 04:31:19;;;;;;;;;;;;;;;;;;6179653;23;19904;-87
2023/09/20 04:33:46;;;;;;;;;;;;;;;;;;6153442;23;19912;-88
2023/09/20 04:36:12;;;;;;;;;;;;;;;;;;6152943;23;19908;-89
2023/09/20 04:38:44;;;;;;;;;;;;;;;;;;6155963;23;19931;-93
2023/09/20 04:41:13;;;;;;;;;;;;;;;;;;6157063;23;20284;-94
2023/09/20 04:43:39;;;;;;;;;;;;;;;;;;6156269;23;20532;-93
2023/09/20 04:46:06;;;;;;;;;;;;;;;;;;6159240;23;20482;-92
2023/09/20 04:48:32;;;;;;;;;;;;;;;;;;6157616;23;19908;-93
2023/09/20 04:51:00;;;;;;;;;;;;;;;;;;6157584;23;20543;-94
2023/09/20 04:53:26;;;;;;;;;;;;;;;;;;6156817;23;19943;-92
2023/09/20 04:55:52;;;;;;;;;;;;;;;;;;6156085;23;19905;-93
2023/09/20 04:58:18;;;;;;;;;;;;;;;;;;6156663;23;19926;-92
2023/09/20 05:00:44;;;;;;;;;;;;;;;;;;6156505;23;19912;-92
2023/09/20 05:03:11;;;;;;;;;;;;;;;;;;6157346;23;19923;-91
2023/09/20 05:05:37;;;;;;;;;;;;;;;;;;6155580;23;19905;-93
2023/09/20 05:08:04;;;;;;;;;;;;;;;;;;6155858;23;19915;-94
2023/09/20 05:10:30;;;;;;;;;;;;;;;;;;6156477;23;19911;-93
2023/09/20 05:12:56;;;;;;;;;;;;;;;;;;6155163;23;19935;-93
2023/09/20 05:15:23;;;;;;;;;;;;;;;;;;6156310;23;20557;-91
2023/09/20 05:17:49;;;;;;;;;;;;;;;;;;6158638;23;20232;-95
2023/09/20 05:20:15;;;;;;;;;;;;;;;;;;6156265;23;20264;-91
2023/09/20 05:22:40;;;;;;;;;;;;;;;;;;6183718;23;19908;-92
2023/09/20 05:25:10;;;;;;;;;;;;;;;;;;6159025;23;20231;-93
2023/09/20 05:27:37;;;;;;;;;;;;;;;;;;6158807;23;19904;-93
2023/09/20 05:30:03;;;;;;;;;;;;;;;;;;6156961;23;19958;-94
2023/09/20 05:32:29;;;;;;;;;;;;;;;;;;6156648;23;19908;-94
2023/09/20 05:34:55;;;;;;;;;;;;;;;;;;6159536;23;19904;-93
2023/09/20 05:37:21;;;;;;;;;;;;;;;;;;6159585;23;19908;-89
2023/09/20 05:39:48;;;;;;;;;;;;;;;;;;6159948;23;19938;-89
2023/09/20 05:42:14;;;;;;;;;;;;;;;;;;6154726;23;19987;-88
2023/09/20 05:44:40;;;;;;;;;;;;;;;;;;6160578;23;20594;-88
2023/09/20 05:47:08;;;;;;;;;;;;;;;;;;6153892;23;19999;-88
2023/09/20 05:49:34;;;;;;;;;;;;;;;;;;6154823;23;19912;-88
2023/09/20 05:52:02;;;;;;;;;;;;;;;;;;6154896;23;20511;-88
2023/09/20 05:54:28;;;;;;;;;;;;;;;;;;6154724;23;19904;-88
2023/09/20 05:56:54;;;;;;;;;;;;;;;;;;6155154;23;19908;-91
2023/09/20 05:59:22;;;;;;;;;;;;;;;;;;6155131;23;19904;-89
2023/09/20 06:01:48;;;;;;;;;;;;;;;;;;6156097;23;19987;-89
2023/09/20 06:04:14;;;;;;;;;;;;;;;;;;6153825;23;20326;-89
2023/09/20 06:06:40;;;;;;;;;;;;;;;;;;6154379;23;20282;-88
2023/09/20 06:09:06;;;;;;;;;;;;;;;;;;6153538;23;19908;-86
2023/09/20 06:11:32;;;;;;;;;;;;;;;;;;6152664;23;20115;-87
2023/09/20 06:13:58;;;;;;;;;;;;;;;;;;6151187;23;19908;-85
2023/09/20 06:16:24;;;;;;;;;;;;;;;;;;6152941;23;19908;-87
2023/09/20 06:18:50;;;;;;;;;;;;;;;;;;6154731;23;20019;-86
2023/09/20 06:21:17;;;;;;;;;;;;;;;;;;6151672;23;19924;-85
2023/09/20 06:23:43;;;;;;;;;;;;;;;;;;6150635;23;20459;-85
2023/09/20 06:26:12;;;;;;;;;;;;;;;;;;6151856;23;19915;-86
2023/09/20 06:28:40;;;;;;;;;;;;;;;;;;6152829;23;20450;-85
2023/09/20 06:31:07;;;;;;;;;;;;;;;;;;6150740;23;19992;-85
2023/09/20 06:33:33;;;;;;;;;;;;;;;;;;6176784;23;19904;-85
2023/09/20 06:35:59;;;;;;;;;;;;;;;;;;6151272;23;19908;-85
2023/09/20 06:38:25;;;;;;;;;;;;;;;;;;6152994;23;20263;-86
2023/09/20 06:40:51;;;;;;;;;;;;;;;;;;6152122;23;19912;-87
2023/09/20 06:43:17;;;;;;;;;;;;;;;;;;6151521;23;19908;-85
2023/09/20 06:45:43;;;;;;;;;;;;;;;;;;6150620;23;20377;-86
2023/09/20 06:48:11;;;;;;;;;;;;;;;;;;6178591;23;20187;-87
2023/09/20 06:50:38;;;;;;;;;;;;;;;;;;6151459;23;19987;-87
2023/09/20 06:53:04;;;;;;;;;;;;;;;;;;6154599;23;20263;-87
2023/09/20 06:55:30;;;;;;;;;;;;;;;;;;6151313;23;20330;-87
2023/09/20 06:57:56;;;;;;;;;;;;;;;;;;6179037;23;19911;-87
2023/09/20 07:00:25;;;;;;;;;;;;;;;;;;6152535;23;19912;-87
2023/09/20 07:02:51;;;;;;;;;;;;;;;;;;6178585;23;20415;-87
2023/09/20 07:05:18;;;;;;;;;;;;;;;;;;6152624;23;19935;-87
2023/09/20 07:07:43;;;;;;;;;;;;;;;;;;6152230;23;19909;-87
2023/09/20 07:10:10;;;;;;;;;;;;;;;;;;6153191;23;20018;-88
2023/09/20 07:12:38;;;;;;;;;;;;;;;;;;6153633;23;19904;-87
2023/09/20 07:15:14;;;;;;;;;;;;;;;;;;6152980;23;20416;-87
2023/09/20 07:17:40;;;;;;;;;;;;;;;;;;6155853;22;19916;-86
2023/09/20 07:20:19;;;;;;;;;;;;;;;;;;6149376;23;19943;-86
2023/09/20 07:22:47;;;;;;;;;;;;;;;;;;6149865;23;19920;-85
2023/09/20 07:25:17;;;;;;;;;;;;;;;;;;6177061;23;20007;-85
2023/09/20 07:27:44;;;;;;;;;;;;;;;;;;6152878;23;19987;-85
2023/09/20 07:30:14;;;;;;;;;;;;;;;;;;6152016;23;20333;-85
2023/09/20 07:32:40;;;;;;;;;;;;;;;;;;6151155;23;19935;-85
2023/09/20 07:35:19;;;;;;;;;;;;;;;;;;6151387;23;20397;-85
2023/09/20 07:37:47;;;;;;;;;;;;;;;;;;6152152;23;20335;-85
2023/09/20 07:40:13;;;;;;;;;;;;;;;;;;6151959;23;20227;-85
2023/09/20 07:42:40;;;;;;;;;;;;;;;;;;6177421;23;19912;-85
2023/09/20 07:45:12;;;;;;;;;;;;;;;;;;6177125;23;19908;-85
2023/09/20 07:47:38;;;;;;;;;;;;;;;;;;6151532;23;20269;-85
2023/09/20 07:50:04;;;;;;;;;;;;;;;;;;6151550;23;19909;-85
2023/09/20 07:52:31;;;;;;;;;;;;;;;;;;6151642;23;20015;-85
2023/09/20 07:54:56;;;;;;;;;;;;;;;;;;6150875;23;19947;-85
2023/09/20 07:57:22;;;;;;;;;;;;;;;;;;6151753;23;19905;-85
2023/09/20 07:59:49;;;;;;;;;;;;;;;;;;6150138;23;19915;-85
2023/09/20 08:02:15;;;;;;;;;;;;;;;;;;6151634;23;19914;-85
2023/09/20 08:04:41;;;;;;;;;;;;;;;;;;6177042;23;19908;-86
2023/09/20 08:07:07;;;;;;;;;;;;;;;;;;6151016;23;19904;-85
2023/09/20 08:09:33;;;;;;;;;;;;;;;;;;6151537;23;20290;-85
2023/09/20 08:12:00;;;;;;;;;;;;;;;;;;6178832;23;19932;-84
2023/09/20 08:14:26;;;;;;;;;;;;;;;;;;6149984;23;19908;-87
2023/09/20 08:19:37;;;;;;;;;;;;;;;;;;6179763;22;19924;-86
2023/09/20 08:22:03;;;;;;;;;;;;;;;;;;6150242;23;20349;-86
2023/09/20 09:00:22;;;;;;;;;;;;;;;;;;6177524;23;19915;-87
2023/09/20 09:02:49;;;;;;;;;;;;;;;;;;6150643;23;19912;-87
2023/09/20 09:05:15;;;;;;;;;;;;;;;;;;6151244;23;19990;-87
2023/09/20 09:07:41;;;;;;;;;;;;;;;;;;6150784;23;19915;-87
2023/09/20 09:10:09;;;;;;;;;;;;;;;;;;6151996;23;19979;-88
2023/09/20 09:12:35;;;;;;;;;;;;;;;;;;6152475;23;20449;-87
2023/09/20 09:15:01;;;;;;;;;;;;;;;;;;6151291;23;20367;-87
2023/09/20 09:17:27;;;;;;;;;;;;;;;;;;6152576;23;19911;-87
2023/09/20 09:19:53;;;;;;;;;;;;;;;;;;6150630;23;19916;-87
2023/09/20 09:22:19;;;;;;;;;;;;;;;;;;6151905;23;20338;-87
2023/09/20 09:24:45;;;;;;;;;;;;;;;;;;6153410;23;19908;-87
2023/09/20 09:27:11;;;;;;;;;;;;;;;;;;6152719;23;20361;-87
2023/09/20 09:29:37;;;;;;;;;;;;;;;;;;6153964;23;20345;-87
2023/09/20 09:32:03;;;;;;;;;;;;;;;;;;6154089;23;19905;-87
2023/09/20 09:34:29;;;;;;;;;;;;;;;;;;6151772;23;19931;-87
2023/09/20 09:36:55;;;;;;;;;;;;;;;;;;6153515;23;20298;-87
2023/09/20 09:39:21;;;;;;;;;;;;;;;;;;6154439;23;19908;-87
2023/09/20 09:41:53;;;;;;;;;;;;;;;;;;6153008;23;20705;-87
2023/09/20 09:44:21;;;;;;;;;;;;;;;;;;6153769;23;19943;-87
2023/09/20 09:46:47;;;;;;;;;;;;;;;;;;6152960;23;19954;-87
2023/09/20 09:49:16;;;;;;;;;;;;;;;;;;6179892;23;19979;-86
2023/09/20 09:51:45;;;;;;;;;;;;;;;;;;6152593;23;20326;-86
2023/09/20 09:54:11;;;;;;;;;;;;;;;;;;6154533;23;19908;-87
2023/09/20 09:56:37;;;;;;;;;;;;;;;;;;6152018;23;20110;-86
2023/09/20 09:59:04;;;;;;;;;;;;;;;;;;6180621;23;19908;-87
2023/09/20 10:01:34;;;;;;;;;;;;;;;;;;6151234;23;19928;-87
2023/09/20 10:04:00;;;;;;;;;;;;;;;;;;6154995;23;19974;-87
2023/09/20 10:06:27;;;;;;;;;;;;;;;;;;6152020;23;20551;-87
2023/09/20 10:08:54;;;;;;;;;;;;;;;;;;6152852;23;19908;-87
2023/09/20 10:11:19;;;;;;;;;;;;;;;;;;6152386;23;19915;-87
2023/09/20 10:13:46;;;;;;;;;;;;;;;;;;6177730;23;20335;-87
2023/09/20 10:16:12;;;;;;;;;;;;;;;;;;6151923;23;19919;-87
2023/09/20 10:18:38;;;;;;;;;;;;;;;;;;6155600;23;20123;-88
2023/09/20 10:21:10;;;;;;;;;;;;;;;;;;6152873;23;20516;-88
2023/09/20 10:23:37;;;;;;;;;;;;;;;;;;6153246;23;19912;-87
2023/09/20 10:26:03;;;;;;;;;;;;;;;;;;6153768;23;19904;-88
2023/09/20 10:28:35;;;;;;;;;;;;;;;;;;6153505;23;19975;-89
2023/09/20 10:31:01;;;;;;;;;;;;;;;;;;6153772;23;19919;-88
2023/09/20 10:33:27;;;;;;;;;;;;;;;;;;6157476;23;19908;-87
2023/09/20 10:35:54;;;;;;;;;;;;;;;;;;6154290;23;19967;-88
2023/09/20 10:38:25;;;;;;;;;;;;;;;;;;6154143;23;19908;-88
2023/09/20 10:40:55;;;;;;;;;;;;;;;;;;6155231;23;19959;-88
2023/09/20 10:43:25;;;;;;;;;;;;;;;;;;6179683;23;20158;-88
2023/09/20 10:45:51;;;;;;;;;;;;;;;;;;6153730;23;19904;-87
2023/09/20 10:48:17;;;;;;;;;;;;;;;;;;6152916;23;19905;-87
2023/09/20 10:50:43;;;;;;;;;;;;;;;;;;6151864;23;20271;-87
2023/09/20 10:53:12;;;;;;;;;;;;;;;;;;6152146;23;19955;-87
2023/09/20 10:55:38;;;;;;;;;;;;;;;;;;6152388;23;19908;-87
2023/09/20 10:58:05;;;;;;;;;;;;;;;;;;6151199;23;19919;-87
2023/09/20 11:00:34;;;;;;;;;;;;;;;;;;6153135;23;19911;-87
2023/09/20 11:03:00;;;;;;;;;;;;;;;;;;6154207;23;20500;-86
2023/09/20 11:05:28;;;;;;;;;;;;;;;;;;6180935;23;19904;-87
2023/09/20 11:07:55;;;;;;;;;;;;;;;;;;6154024;23;19923;-87
2023/09/20 11:10:21;;;;;;;;;;;;;;;;;;6153641;23;19908;-87
2023/09/20 11:12:47;;;;;;;;;;;;;;;;;;6153321;23;20142;-87
2023/09/20 11:15:13;;;;;;;;;;;;;;;;;;6179871;23;19908;-87
2023/09/20 11:17:39;;;;;;;;;;;;;;;;;;6154844;23;20302;-87
2023/09/20 11:20:05;;;;;;;;;;;;;;;;;;6181105;22;19916;-86
2023/09/20 11:22:31;;;;;;;;;;;;;;;;;;6153390;23;19916;-86
2023/09/20 11:24:57;;;;;;;;;;;;;;;;;;6154248;23;19984;-86
2023/09/20 11:27:23;;;;;;;;;;;;;;;;;;6154385;23;19908;-86
2023/09/20 11:29:49;;;;;;;;;;;;;;;;;;6152873;23;20212;-86
2023/09/20 11:32:17;;;;;;;;;;;;;;;;;;6153313;23;20335;-87
2023/09/20 11:34:43;;;;;;;;;;;;;;;;;;6152920;23;19935;-86
2023/09/20 11:37:09;;;;;;;;;;;;;;;;;;6152543;23;20247;-87
2023/09/20 11:39:35;;;;;;;;;;;;;;;;;;6153474;23;19959;-87
2023/09/20 11:42:02;;;;;;;;;;;;;;;;;;6152857;23;20295;-87
2023/09/20 11:44:28;;;;;;;;;;;;;;;;;;6153101;23;19904;-87
2023/09/20 11:46:55;;;;;;;;;;;;;;;;;;6153515;23;19915;-87
2023/09/20 11:49:22;;;;;;;;;;;;;;;;;;6180112;23;20388;-87
2023/09/20 11:51:48;;;;;;;;;;;;;;;;;;6153514;23;20342;-87
2023/09/20 11:54:14;;;;;;;;;;;;;;;;;;6153780;23;19942;-87
2023/09/20 11:56:41;;;;;;;;;;;;;;;;;;6153769;23;20342;-88
2023/09/20 11:59:09;;;;;;;;;;;;;;;;;;6179679;23;19928;-86
2023/09/20 12:01:36;;;;;;;;;;;;;;;;;;6151073;23;19912;-85
2023/09/20 12:04:03;;;;;;;;;;;;;;;;;;6153084;23;20006;-86
2023/09/20 12:06:29;;;;;;;;;;;;;;;;;;6151375;23;19904;-86
2023/09/20 12:08:55;;;;;;;;;;;;;;;;;;6153416;23;20030;-86
2023/09/20 12:11:22;;;;;;;;;;;;;;;;;;6152830;23;19936;-85
2023/09/20 12:13:48;;;;;;;;;;;;;;;;;;6176944;23;19915;-85
2023/09/20 12:16:17;;;;;;;;;;;;;;;;;;6151742;23;19909;-86
2023/09/20 12:18:44;;;;;;;;;;;;;;;;;;6180683;22;20246;-85
2023/09/20 12:21:10;;;;;;;;;;;;;;;;;;6150783;23;19916;-85
2023/09/20 12:23:36;;;;;;;;;;;;;;;;;;6152693;23;20522;-86
2023/09/20 12:26:03;;;;;;;;;;;;;;;;;;6151511;23;20233;-85
2023/09/20 12:28:29;;;;;;;;;;;;;;;;;;6179194;23;19912;-85
2023/09/20 12:30:58;;;;;;;;;;;;;;;;;;6151650;23;20187;-86
2023/09/20 12:33:24;;;;;;;;;;;;;;;;;;6150824;23;19916;-85
2023/09/20 12:35:50;;;;;;;;;;;;;;;;;;6151384;23;19915;-85
2023/09/20 12:38:16;;;;;;;;;;;;;;;;;;6153426;23;19904;-87
2023/09/20 12:40:43;;;;;;;;;;;;;;;;;;6180841;23;19922;-88
2023/09/20 12:43:09;;;;;;;;;;;;;;;;;;6153931;23;19955;-89
2023/09/20 12:45:35;;;;;;;;;;;;;;;;;;6153335;23;19904;-89
2023/09/20 12:48:01;;;;;;;;;;;;;;;;;;6153718;23;19913;-88
2023/09/20 12:50:33;;;;;;;;;;;;;;;;;;6179426;23;20278;-89
2023/09/20 12:52:59;;;;;;;;;;;;;;;;;;6153327;23;19958;-89
2023/09/20 12:55:25;;;;;;;;;;;;;;;;;;6153176;23;20292;-89
2023/09/20 12:57:51;;;;;;;;;;;;;;;;;;6155052;23;19904;-88
2023/09/20 13:00:18;;;;;;;;;;;;;;;;;;6183610;23;19932;-89
2023/09/20 13:02:45;;;;;;;;;;;;;;;;;;6154722;23;20298;-89
2023/09/20 13:05:12;;;;;;;;;;;;;;;;;;6155597;23;19916;-88
2023/09/20 13:07:38;;;;;;;;;;;;;;;;;;6181169;23;19923;-86
2023/09/20 13:10:08;;;;;;;;;;;;;;;;;;6153600;23;19906;-85
2023/09/20 13:12:36;;;;;;;;;;;;;;;;;;6152230;23;20258;-85
2023/09/20 13:15:01;;;;;;;;;;;;;;;;;;6152016;23;19911;-86
2023/09/20 13:17:27;;;;;;;;;;;;;;;;;;6179998;23;20540;-86
2023/09/20 13:19:53;;;;;;;;;;;;;;;;;;6180805;22;19912;-86
2023/09/20 13:22:20;;;;;;;;;;;;;;;;;;6176753;23;19994;-86
2023/09/20 13:24:47;;;;;;;;;;;;;;;;;;6151128;23;19908;-87
2023/09/20 13:27:14;;;;;;;;;;;;;;;;;;6151791;23;19904;-85
2023/09/20 13:29:42;;;;;;;;;;;;;;;;;;6150637;23;20484;-85
2023/09/20 13:32:08;;;;;;;;;;;;;;;;;;6151353;23;19905;-85
2023/09/20 13:34:38;;;;;;;;;;;;;;;;;;6151554;23;19919;-85
2023/09/20 13:37:04;;;;;;;;;;;;;;;;;;6151336;23;19916;-86
2023/09/20 13:39:30;;;;;;;;;;;;;;;;;;6151383;23;20266;-85
2023/09/20 13:41:56;;;;;;;;;;;;;;;;;;6150620;23;20350;-88
2023/09/20 13:44:22;;;;;;;;;;;;;;;;;;6147719;23;20164;-86
2023/09/20 13:46:48;;;;;;;;;;;;;;;;;;6177396;23;20274;-87
2023/09/20 13:49:15;;;;;;;;;;;;;;;;;;6152868;23;19947;-87
2023/09/20 13:51:41;;;;;;;;;;;;;;;;;;6152592;23;20354;-87
2023/09/20 13:54:09;;;;;;;;;;;;;;;;;;6179849;23;20583;-87
2023/09/20 13:56:37;;;;;;;;;;;;;;;;;;6152568;23;19919;-87
2023/09/20 13:59:03;;;;;;;;;;;;;;;;;;6155034;23;19920;-87
2023/09/20 14:01:32;;;;;;;;;;;;;;;;;;6153037;23;20242;-87
2023/09/20 14:03:58;;;;;;;;;;;;;;;;;;6153960;23;19916;-87
2023/09/20 14:06:24;;;;;;;;;;;;;;;;;;6153675;23;19908;-87
2023/09/20 14:08:53;;;;;;;;;;;;;;;;;;6180615;23;19915;-87
2023/09/20 14:11:22;;;;;;;;;;;;;;;;;;6153780;23;19904;-87
2023/09/20 14:13:48;;;;;;;;;;;;;;;;;;6153144;23;20302;-87
2023/09/20 14:16:14;;;;;;;;;;;;;;;;;;6182166;23;19908;-86
2023/09/20 14:18:40;;;;;;;;;;;;;;;;;;6154988;23;19955;-85
2023/09/20 14:21:07;;;;;;;;;;;;;;;;;;6178837;23;19912;-85
2023/09/20 14:23:35;;;;;;;;;;;;;;;;;;6179671;23;19905;-84
2023/09/20 14:26:01;;;;;;;;;;;;;;;;;;6152247;23;20397;-85
2023/09/20 14:28:27;;;;;;;;;;;;;;;;;;6180672;23;19946;-85
2023/09/20 14:30:53;;;;;;;;;;;;;;;;;;6154220;23;20032;-85
2023/09/20 14:33:21;;;;;;;;;;;;;;;;;;6153365;23;20365;-87
2023/09/20 14:35:47;;;;;;;;;;;;;;;;;;6152864;23;20306;-85
2023/09/20 14:38:14;;;;;;;;;;;;;;;;;;6152915;23;19912;-85
2023/09/20 14:40:41;;;;;;;;;;;;;;;;;;6152475;23;20340;-86
2023/09/20 14:43:08;;;;;;;;;;;;;;;;;;6152955;23;19987;-85
2023/09/20 14:45:34;;;;;;;;;;;;;;;;;;6152885;23;19910;-85
2023/09/20 14:48:00;;;;;;;;;;;;;;;;;;6152023;23;19978;-87
2023/09/20 14:50:26;;;;;;;;;;;;;;;;;;6152476;23;20404;-86
2023/09/20 14:52:53;;;;;;;;;;;;;;;;;;6152946;23;20127;-85
2023/09/20 14:55:19;;;;;;;;;;;;;;;;;;6149932;23;19935;-85
2023/09/20 14:57:46;;;;;;;;;;;;;;;;;;6153025;23;19908;-87
2023/09/20 15:00:17;;;;;;;;;;;;;;;;;;6153110;23;20277;-87
2023/09/20 15:02:44;;;;;;;;;;;;;;;;;;6153294;23;19912;-87
2023/09/20 15:05:11;;;;;;;;;;;;;;;;;;6152927;23;19916;-87
2023/09/20 15:07:36;;;;;;;;;;;;;;;;;;6153704;23;19915;-87
2023/09/20 15:10:05;;;;;;;;;;;;;;;;;;6152264;23;19912;-86
2023/09/20 15:12:31;;;;;;;;;;;;;;;;;;6153990;23;19960;-87
2023/09/20 15:14:58;;;;;;;;;;;;;;;;;;6153524;23;19952;-87
2023/09/20 15:17:25;;;;;;;;;;;;;;;;;;6153348;23;19912;-87
2023/09/20 15:19:52;;;;;;;;;;;;;;;;;;6156914;23;20345;-86
2023/09/20 15:22:19;;;;;;;;;;;;;;;;;;6152895;23;19919;-87
2023/09/20 15:24:45;;;;;;;;;;;;;;;;;;6153288;23;19904;-87
2023/09/20 15:27:12;;;;;;;;;;;;;;;;;;6153297;23;19958;-87
2023/09/20 15:29:38;;;;;;;;;;;;;;;;;;6152771;23;19939;-86
2023/09/20 15:32:05;;;;;;;;;;;;;;;;;;6153653;23;19908;-87
2023/09/20 15:34:37;;;;;;;;;;;;;;;;;;6178515;23;19926;-87
2023/09/20 15:37:03;;;;;;;;;;;;;;;;;;6177962;23;20285;-87
2023/09/20 15:39:29;;;;;;;;;;;;;;;;;;6152201;23;19912;-86
2023/09/20 15:41:55;;;;;;;;;;;;;;;;;;6152030;23;19912;-90
2023/09/20 15:44:21;;;;;;;;;;;;;;;;;;6154041;23;19912;-88
2023/09/20 15:46:48;;;;;;;;;;;;;;;;;;6153160;23;19908;-88
2023/09/20 15:49:14;;;;;;;;;;;;;;;;;;6153811;23;19908;-88
2023/09/20 15:51:40;;;;;;;;;;;;;;;;;;6154661;23;20047;-88
2023/09/20 15:54:07;;;;;;;;;;;;;;;;;;6152480;23;20235;-88
2023/09/20 15:56:33;;;;;;;;;;;;;;;;;;6177317;23;19992;-87
2023/09/20 15:59:01;;;;;;;;;;;;;;;;;;6152519;23;20365;-88
2023/09/20 16:01:27;;;;;;;;;;;;;;;;;;6178909;23;19908;-87
2023/09/20 16:03:53;;;;;;;;;;;;;;;;;;6153018;23;19979;-87
2023/09/20 16:06:19;;;;;;;;;;;;;;;;;;6151655;23;20386;-87
2023/09/20 16:08:46;;;;;;;;;;;;;;;;;;6157020;23;19908;-86
2023/09/20 16:11:12;;;;;;;;;;;;;;;;;;6154143;23;20018;-86
2023/09/20 16:13:38;;;;;;;;;;;;;;;;;;6153247;23;20435;-86
2023/09/20 16:16:05;;;;;;;;;;;;;;;;;;6154013;23;19955;-86
2023/09/20 16:18:31;;;;;;;;;;;;;;;;;;6158466;23;20235;-86
2023/09/20 16:20:57;;;;;;;;;;;;;;;;;;6157305;23;20274;-86
2023/09/20 16:23:24;;;;;;;;;;;;;;;;;;6158045;23;19913;-85
2023/09/20 16:25:51;;;;;;;;;;;;;;;;;;6158139;23;19911;-86
2023/09/20 16:28:16;;;;;;;;;;;;;;;;;;6182484;23;19904;-87
2023/09/20 16:30:42;;;;;;;;;;;;;;;;;;6156347;23;20047;-87
2023/09/20 16:33:10;;;;;;;;;;;;;;;;;;6155120;23;19915;-87
2023/09/20 16:35:36;;;;;;;;;;;;;;;;;;6155092;23;20271;-87
2023/09/20 16:38:02;;;;;;;;;;;;;;;;;;6181994;23;19936;-87
2023/09/20 16:40:28;;;;;;;;;;;;;;;;;;6154139;23;19940;-86
2023/09/20 16:43:00;;;;;;;;;;;;;;;;;;6155023;23;19935;-84
2023/09/20 16:45:26;;;;;;;;;;;;;;;;;;6154959;23;19915;-87
2023/09/20 16:47:52;;;;;;;;;;;;;;;;;;6169223;23;19904;-87
2023/09/20 16:50:18;;;;;;;;;;;;;;;;;;6203619;23;19920;-87
2023/09/20 16:52:46;;;;;;;;;;;;;;;;;;6180244;23;19892;-87
2023/09/20 16:55:12;;;;;;;;;;;;;;;;;;6205589;23;19900;-87
2023/09/20 16:57:38;;;;;;;;;;;;;;;;;;6178817;23;19920;-88
2023/09/20 17:00:11;;;;;;;;;;;;;;;;;;6180871;23;19888;-88
2023/09/20 17:02:36;;;;;;;;;;;;;;;;;;6179569;23;19909;-87
2023/09/20 17:05:03;;;;;;;;;;;;;;;;;;6177766;23;19928;-88
2023/09/20 17:07:30;;;;;;;;;;;;;;;;;;6179183;23;19908;-87
2023/09/20 17:09:56;;;;;;;;;;;;;;;;;;6174186;23;19911;-88
2023/09/20 17:12:25;;;;;;;;;;;;;;;;;;6173030;23;19908;-88
2023/09/20 17:14:51;;;;;;;;;;;;;;;;;;6198660;23;19908;-88
2023/09/20 17:17:19;;;;;;;;;;;;;;;;;;6195843;23;19904;-86
2023/09/20 17:19:45;;;;;;;;;;;;;;;;;;6160853;23;20374;-87
2023/09/20 17:22:12;;;;;;;;;;;;;;;;;;6159409;23;19923;-86
2023/09/20 17:24:38;;;;;;;;;;;;;;;;;;6157599;23;20062;-87